createdAt,value
2019-03-25T05:15:43.939Z,33.85
2019-03-25T06:18:04.985Z,34.27
2019-03-25T06:19:04.978Z,34.47
2019-03-25T06:20:04.988Z,34.06
2019-03-25T06:21:04.934Z,34.36
2019-03-25T06:22:04.917Z,34.47
2019-03-25T06:23:04.933Z,34.47
2019-03-25T06:24:04.908Z,34.27
2019-03-25T06:25:04.896Z,34.47
2019-03-25T06:26:04.876Z,34.47
2019-03-25T06:27:13.727Z,34.35
2019-03-25T06:28:26.635Z,34.35
2019-03-25T06:29:26.625Z,34.35
2019-03-25T06:30:26.606Z,34.45
2019-03-25T06:31:26.616Z,34.55
2019-03-25T06:32:26.584Z,34.45
2019-03-25T06:33:26.576Z,35.05
2019-03-25T06:34:26.567Z,34.65
2019-03-25T06:35:26.557Z,34.35
2019-03-25T06:36:26.557Z,34.35
2019-03-25T06:37:26.538Z,34.35
2019-03-25T06:38:26.534Z,33.95
2019-03-25T06:39:26.507Z,33.95
2019-03-25T06:40:26.509Z,34.05
2019-03-25T06:41:26.487Z,34.45
2019-03-25T06:42:26.486Z,34.05
2019-03-25T06:43:26.463Z,34.03
2019-03-25T06:44:26.459Z,33.95
2019-03-25T06:45:26.442Z,34.45
2019-03-25T06:46:26.496Z,34.33
2019-03-25T06:47:26.418Z,34.53
2019-03-25T06:48:26.405Z,34.33
2019-03-25T06:49:26.403Z,34.64
2019-03-25T06:50:26.395Z,34.45
2019-03-25T06:51:26.378Z,34.24
2019-03-25T06:52:26.377Z,34.44
2019-03-25T06:53:26.358Z,34.33
2019-03-25T06:54:26.342Z,34.44
2019-03-25T06:55:26.336Z,34.44
2019-03-25T06:56:26.314Z,34.33
2019-03-25T06:57:26.303Z,34.33
2019-03-25T06:58:26.292Z,34.42
2019-03-25T06:59:26.278Z,34.44
2019-03-25T07:00:26.291Z,34.33
2019-03-25T07:01:26.262Z,34.33
2019-03-25T07:02:26.288Z,34.33
2019-03-25T07:03:26.237Z,34.24
2019-03-25T07:04:26.235Z,34.32
2019-03-25T07:05:26.217Z,34.32
2019-03-25T07:06:26.203Z,34.42
2019-03-25T07:07:26.190Z,34.32
2019-03-25T07:08:26.193Z,34.42
2019-03-25T07:09:26.174Z,34.32
2019-03-25T07:10:26.159Z,34.42
2019-03-25T07:11:26.183Z,34.30
2019-03-25T07:12:26.135Z,34.32
2019-03-25T07:13:26.139Z,34.30
2019-03-25T07:14:26.122Z,34.20
2019-03-25T07:15:26.137Z,34.40
2019-03-25T07:16:26.107Z,34.10
2019-03-25T07:17:26.135Z,34.28
2019-03-25T07:18:26.083Z,34.30
2019-03-25T07:19:26.072Z,34.28
2019-03-25T07:20:26.078Z,34.28
2019-03-25T07:21:26.030Z,33.88
2019-03-25T07:22:26.024Z,34.30
2019-03-25T07:23:26.037Z,34.50
2019-03-25T07:24:26.034Z,34.58
2019-03-25T07:25:26.025Z,34.08
2019-03-25T07:26:25.979Z,34.19
2019-03-25T07:27:36.092Z,34.38
2019-03-25T07:28:48.491Z,34.19
2019-03-25T07:29:48.466Z,34.28
2019-03-25T07:30:48.466Z,35.09
2019-03-25T07:31:48.446Z,35.29
2019-03-25T07:32:48.433Z,35.09
2019-03-25T07:33:48.437Z,35.79
2019-03-25T07:34:48.420Z,35.09
2019-03-25T07:35:48.404Z,34.89
2019-03-25T07:36:48.399Z,34.99
2019-03-25T07:37:48.400Z,35.27
2019-03-25T07:38:48.370Z,34.57
2019-03-25T07:39:48.365Z,33.77
2019-03-25T07:40:48.355Z,34.27
2019-03-25T07:41:48.368Z,34.37
2019-03-25T07:42:48.331Z,34.37
2019-03-25T07:43:48.327Z,34.47
2019-03-25T07:44:48.308Z,34.27
2019-03-25T07:45:48.331Z,34.06
2019-03-25T07:46:48.302Z,34.25
2019-03-25T07:47:48.290Z,34.15
2019-03-25T07:48:48.260Z,33.75
2019-03-25T07:49:48.252Z,34.15
2019-03-25T07:50:48.244Z,33.95
2019-03-25T07:51:48.229Z,34.05
2019-03-25T07:52:48.218Z,33.55
2019-03-25T07:53:51.205Z,33.45
2019-03-25T07:54:48.221Z,33.45
2019-03-25T07:55:48.219Z,33.75
2019-03-25T07:56:49.397Z,33.65
2019-03-25T07:57:48.859Z,33.85
2019-03-25T07:58:48.208Z,33.75
2019-03-25T07:59:48.420Z,33.74
2019-03-25T08:00:48.717Z,33.74
2019-03-25T08:01:49.321Z,33.43
2019-03-25T08:02:48.180Z,33.74
2019-03-25T08:03:48.673Z,33.83
2019-03-25T08:04:48.154Z,33.74
2019-03-25T08:05:48.232Z,33.63
2019-03-25T08:06:48.146Z,33.53
2019-03-25T08:07:48.123Z,33.74
2019-03-25T08:08:48.312Z,33.75
2019-03-25T08:09:48.075Z,33.85
2019-03-25T08:10:49.620Z,33.75
2019-03-25T08:11:48.063Z,34.66
2019-03-25T08:12:48.052Z,34.66
2019-03-25T08:13:48.053Z,34.55
2019-03-25T08:14:48.025Z,34.35
2019-03-25T08:15:48.010Z,34.25
2019-03-25T08:16:47.969Z,33.75
2019-03-25T08:17:47.959Z,34.15
2019-03-25T08:18:48.080Z,33.75
2019-03-25T08:19:47.947Z,34.03
2019-03-25T08:20:47.931Z,34.46
2019-03-25T08:21:47.992Z,34.35
2019-03-25T08:22:47.953Z,34.46
2019-03-25T08:23:47.949Z,34.25
2019-03-25T08:24:47.912Z,34.25
2019-03-25T08:25:47.897Z,34.84
2019-03-25T08:26:47.929Z,33.83
2019-03-25T08:27:59.189Z,34.14
2019-03-25T08:29:09.646Z,33.83
2019-03-25T08:30:09.693Z,34.02
2019-03-25T08:31:09.574Z,34.14
2019-03-25T08:32:09.663Z,33.74
2019-03-25T08:33:09.577Z,33.83
2019-03-25T08:34:09.548Z,33.94
2019-03-25T08:35:09.551Z,33.63
2019-03-25T08:36:09.526Z,33.52
2019-03-25T08:37:09.506Z,33.63
2019-03-25T08:38:09.514Z,33.53
2019-03-25T08:39:09.485Z,33.31
2019-03-25T08:40:09.709Z,33.52
2019-03-25T08:41:09.469Z,33.22
2019-03-25T08:42:10.261Z,33.31
2019-03-25T08:43:09.514Z,33.43
2019-03-25T08:44:09.437Z,33.62
2019-03-25T08:45:09.732Z,33.72
2019-03-25T08:46:09.568Z,33.42
2019-03-25T08:47:09.403Z,33.42
2019-03-25T08:48:17.960Z,33.60
2019-03-25T08:50:13.737Z,33.70
2019-03-25T08:51:13.686Z,34.00
2019-03-25T08:52:16.695Z,33.70
2019-03-25T08:53:14.946Z,33.80
2019-03-25T08:54:13.657Z,33.40
2019-03-25T08:55:13.663Z,33.60
2019-03-25T08:56:13.621Z,33.40
2019-03-25T08:57:16.260Z,33.20
2019-03-25T08:58:13.621Z,33.30
2019-03-25T08:59:13.594Z,33.89
2019-03-25T09:00:13.598Z,33.69
2019-03-25T09:01:13.617Z,33.69
2019-03-25T09:02:13.567Z,33.48
2019-03-25T09:03:13.549Z,33.58
2019-03-25T09:04:13.560Z,33.69
2019-03-25T09:05:13.554Z,33.69
2019-03-25T09:06:13.533Z,33.39
2019-03-25T09:07:13.505Z,33.69
2019-03-25T09:08:13.500Z,33.89
2019-03-25T09:09:13.481Z,33.67
2019-03-25T09:10:13.477Z,33.67
2019-03-25T09:11:13.471Z,33.48
2019-03-25T09:12:13.460Z,33.07
2019-03-25T09:13:13.677Z,33.47
2019-03-25T09:14:13.447Z,33.67
2019-03-25T09:15:13.462Z,33.27
2019-03-25T09:31:44.775Z,33.28
2019-03-25T09:32:44.758Z,33.58
2019-03-25T09:33:44.765Z,33.78
2019-03-25T09:34:44.735Z,34.19
2019-03-25T09:35:44.788Z,34.28
2019-03-25T09:36:44.955Z,34.39
2019-03-25T09:37:44.695Z,34.39
2019-03-25T09:38:44.683Z,34.39
2019-03-25T09:39:44.690Z,34.19
2019-03-25T09:40:44.666Z,33.89
2019-03-25T09:41:44.650Z,33.69
2019-03-25T09:42:44.669Z,33.97
2019-03-25T09:43:44.635Z,33.77
2019-03-25T09:44:44.678Z,34.07
2019-03-25T09:45:44.709Z,34.07
2019-03-25T09:46:44.597Z,34.17
2019-03-25T09:47:44.586Z,33.75
2019-03-25T09:48:44.581Z,33.27
2019-03-25T09:49:44.565Z,33.97
2019-03-25T09:50:44.554Z,33.85
2019-03-25T09:51:44.554Z,33.66
2019-03-25T09:52:44.550Z,33.77
2019-03-25T09:53:44.539Z,34.36
2019-03-25T09:54:44.515Z,33.75
2019-03-25T09:55:44.511Z,33.85
2019-03-25T09:56:44.524Z,34.16
2019-03-25T09:57:44.485Z,34.05
2019-03-25T09:58:44.480Z,33.85
2019-03-25T09:59:44.745Z,34.05
2019-03-25T10:00:44.441Z,34.55
2019-03-25T10:01:44.430Z,34.25
2019-03-25T10:02:44.434Z,34.16
2019-03-25T10:03:44.415Z,33.84
2019-03-25T10:04:44.405Z,34.36
2019-03-25T10:05:44.406Z,34.04
2019-03-25T10:06:44.375Z,34.55
2019-03-25T10:07:44.398Z,34.14
2019-03-25T10:08:44.352Z,34.14
2019-03-25T10:09:44.349Z,33.54
2019-03-25T10:10:44.349Z,33.34
2019-03-25T10:11:44.354Z,33.75
2019-03-25T10:12:44.318Z,34.34
2019-03-25T10:13:44.295Z,33.94
2019-03-25T10:14:44.291Z,34.86
2019-03-25T10:15:44.307Z,33.94
2019-03-25T10:16:44.303Z,34.24
2019-03-25T10:17:44.283Z,34.14
2019-03-25T10:18:44.274Z,34.14
2019-03-25T10:19:44.258Z,34.24
2019-03-25T10:20:44.221Z,34.24
2019-03-25T10:21:44.275Z,34.42
2019-03-25T10:22:44.197Z,33.74
2019-03-25T10:23:44.281Z,34.12
2019-03-25T10:24:44.196Z,34.24
2019-03-25T10:25:44.161Z,34.34
2019-03-25T10:26:44.155Z,34.34
2019-03-25T10:27:44.165Z,34.22
2019-03-25T10:28:48.909Z,33.92
2019-03-25T10:29:44.131Z,34.22
2019-03-25T10:30:44.113Z,34.52
2019-03-25T10:31:44.113Z,34.22
2019-03-25T10:32:44.088Z,34.22
2019-03-25T10:33:44.108Z,34.32
2019-03-25T10:34:44.054Z,34.02
2019-03-25T10:35:44.054Z,34.02
2019-03-25T10:36:44.040Z,34.12
2019-03-25T10:37:44.023Z,34.12
2019-03-25T10:38:44.012Z,34.32
2019-03-25T10:39:44.023Z,35.12
2019-03-25T10:40:44.024Z,34.32
2019-03-25T10:41:43.977Z,34.72
2019-03-25T10:42:43.970Z,34.72
2019-03-25T10:43:43.961Z,33.92
2019-03-25T10:44:43.948Z,34.52
2019-03-25T10:45:43.956Z,34.22
2019-03-25T10:46:44.586Z,33.92
2019-03-25T10:47:43.934Z,34.93
2019-03-25T10:48:43.904Z,34.82
2019-03-25T10:49:43.904Z,34.71
2019-03-25T10:50:43.890Z,35.12
2019-03-25T10:51:43.881Z,34.82
2019-03-25T10:52:43.862Z,35.22
2019-03-25T10:53:43.854Z,34.94
2019-03-25T10:54:44.009Z,35.14
2019-03-25T10:55:43.829Z,35.54
2019-03-25T10:56:49.083Z,35.74
2019-03-25T10:57:43.882Z,35.02
2019-03-25T10:58:43.782Z,35.93
2019-03-25T10:59:43.792Z,34.52
2019-03-25T11:00:43.793Z,34.82
2019-03-25T11:01:43.780Z,35.32
2019-03-25T11:02:43.815Z,35.43
2019-03-25T11:03:43.788Z,35.51
2019-03-25T11:04:43.769Z,35.30
2019-03-25T11:05:43.747Z,35.61
2019-03-25T11:06:43.745Z,35.51
2019-03-25T11:07:44.292Z,35.72
2019-03-25T11:08:46.748Z,35.91
2019-03-25T11:09:43.723Z,36.23
2019-03-25T11:10:43.657Z,35.93
2019-03-25T11:11:43.654Z,36.02
2019-03-25T11:12:43.626Z,35.93
2019-03-25T11:13:43.622Z,35.93
2019-03-25T11:14:43.630Z,35.93
2019-03-25T11:15:43.603Z,36.12
2019-03-25T11:16:43.585Z,35.54
2019-03-25T11:17:43.597Z,36.44
2019-03-25T11:18:43.626Z,36.34
2019-03-25T11:19:43.594Z,36.04
2019-03-25T11:20:43.555Z,36.62
2019-03-25T11:21:43.550Z,36.43
2019-03-25T11:22:43.522Z,36.52
2019-03-25T11:23:43.511Z,35.82
2019-03-25T11:24:43.495Z,36.43
2019-03-25T11:25:43.478Z,36.43
2019-03-25T11:26:43.568Z,36.32
2019-03-25T11:27:43.479Z,36.32
2019-03-25T11:28:43.455Z,36.32
2019-03-25T11:29:43.429Z,36.32
2019-03-25T11:30:43.426Z,36.02
2019-03-25T11:31:43.419Z,36.62
2019-03-25T11:32:43.405Z,36.02
2019-03-25T11:33:43.401Z,36.12
2019-03-25T11:34:43.374Z,36.34
2019-03-25T11:35:43.364Z,36.43
2019-03-25T11:36:43.355Z,36.12
2019-03-25T11:37:43.338Z,35.32
2019-03-25T11:38:43.363Z,36.32
2019-03-25T11:39:43.327Z,36.44
2019-03-25T11:40:43.548Z,36.23
2019-03-25T11:41:43.303Z,35.93
2019-03-25T11:42:43.289Z,36.43
2019-03-25T11:43:43.281Z,35.93
2019-03-25T11:44:43.268Z,35.72
2019-03-25T11:45:43.257Z,35.93
2019-03-25T11:46:43.241Z,35.93
2019-03-25T11:47:43.240Z,35.93
2019-03-25T11:48:43.239Z,36.02
2019-03-25T11:49:44.580Z,35.93
2019-03-25T11:50:43.210Z,35.93
2019-03-25T11:51:43.191Z,36.23
2019-03-25T11:52:43.169Z,35.82
2019-03-25T11:53:43.171Z,35.72
2019-03-25T11:54:43.542Z,35.52
2019-03-25T11:55:43.148Z,35.52
2019-03-25T11:56:43.132Z,35.61
2019-03-25T11:57:43.114Z,35.51
2019-03-25T11:58:43.105Z,34.41
2019-03-25T11:59:43.140Z,35.11
2019-03-25T12:00:43.081Z,35.39
2019-03-25T12:01:43.090Z,35.11
2019-03-25T12:02:43.055Z,35.29
2019-03-25T12:03:43.074Z,35.19
2019-03-25T12:04:43.035Z,35.29
2019-03-25T12:05:43.026Z,35.30
2019-03-25T12:06:43.030Z,34.80
2019-03-25T12:07:43.019Z,35.00
2019-03-25T12:08:43.008Z,35.21
2019-03-25T12:09:42.993Z,35.32
2019-03-25T12:10:42.969Z,34.82
2019-03-25T12:11:42.984Z,35.64
2019-03-25T12:12:42.947Z,35.54
2019-03-25T12:13:42.938Z,35.44
2019-03-25T12:14:42.923Z,35.54
2019-03-25T12:15:42.908Z,35.54
2019-03-25T12:16:42.897Z,35.54
2019-03-25T12:17:42.889Z,35.64
2019-03-25T12:18:42.903Z,35.74
2019-03-25T12:19:42.927Z,35.54
2019-03-25T12:20:42.874Z,35.84
2019-03-25T12:21:42.865Z,35.84
2019-03-25T12:22:42.839Z,35.32
2019-03-25T12:23:42.816Z,35.72
2019-03-25T12:24:42.824Z,35.62
2019-03-25T12:25:42.799Z,35.62
2019-03-25T12:26:42.793Z,34.72
2019-03-25T12:27:42.787Z,34.41
2019-03-25T12:28:42.763Z,35.43
2019-03-25T12:29:42.756Z,35.02
2019-03-25T12:30:42.751Z,35.12
2019-03-25T12:31:42.741Z,35.32
2019-03-25T12:32:42.717Z,34.93
2019-03-25T12:33:42.717Z,34.62
2019-03-25T12:34:42.722Z,34.62
2019-03-25T12:35:42.697Z,34.52
2019-03-25T12:36:42.675Z,34.62
2019-03-25T12:37:42.675Z,35.00
2019-03-25T12:38:42.662Z,35.61
2019-03-25T12:39:42.638Z,35.32
2019-03-25T12:40:42.628Z,35.43
2019-03-25T12:41:42.619Z,35.30
2019-03-25T12:42:42.621Z,35.00
2019-03-25T12:43:42.594Z,35.30
2019-03-25T12:44:42.600Z,35.71
2019-03-25T12:45:42.567Z,35.41
2019-03-25T12:46:42.567Z,36.01
2019-03-25T12:47:42.560Z,35.82
2019-03-25T12:48:42.537Z,36.21
2019-03-25T12:49:42.528Z,35.80
2019-03-25T12:50:42.511Z,35.61
2019-03-25T12:51:42.525Z,35.93
2019-03-25T12:52:42.545Z,35.93
2019-03-25T12:53:42.494Z,36.02
2019-03-25T12:54:42.472Z,35.93
2019-03-25T12:55:42.455Z,35.80
2019-03-25T12:56:42.466Z,35.72
2019-03-25T12:57:42.430Z,35.71
2019-03-25T12:58:42.433Z,35.80
2019-03-25T12:59:42.430Z,35.91
2019-03-25T13:00:42.405Z,36.11
2019-03-25T13:01:52.363Z,35.71
2019-03-25T13:03:04.321Z,36.29
2019-03-25T13:04:04.287Z,35.61
2019-03-25T13:05:04.299Z,35.80
2019-03-25T13:06:04.286Z,35.61
2019-03-25T13:07:04.258Z,36.11
2019-03-25T13:08:04.250Z,35.59
2019-03-25T13:09:04.244Z,35.39
2019-03-25T13:10:04.236Z,35.71
2019-03-25T13:11:04.234Z,36.21
2019-03-25T13:12:04.212Z,35.99
2019-03-25T13:13:04.208Z,35.91
2019-03-25T13:14:04.198Z,36.01
2019-03-25T13:15:04.187Z,35.30
2019-03-25T13:16:04.158Z,36.30
2019-03-25T13:17:04.164Z,35.80
2019-03-25T13:18:04.145Z,35.93
2019-03-25T13:19:04.133Z,35.93
2019-03-25T13:20:04.148Z,35.82
2019-03-25T13:21:07.092Z,35.80
2019-03-25T13:22:26.410Z,35.93
2019-03-25T13:23:26.398Z,36.02
2019-03-25T13:24:26.394Z,36.12
2019-03-25T13:25:26.390Z,36.43
2019-03-25T13:26:26.370Z,35.62
2019-03-25T13:27:26.353Z,36.43
2019-03-25T13:28:26.340Z,36.62
2019-03-25T13:29:26.345Z,36.04
2019-03-25T13:30:26.637Z,36.24
2019-03-25T13:31:26.317Z,36.32
2019-03-25T13:32:26.319Z,36.02
2019-03-25T13:33:26.303Z,36.62
2019-03-25T13:34:26.275Z,36.52
2019-03-25T13:35:26.482Z,36.12
2019-03-25T13:36:26.261Z,36.02
2019-03-25T13:37:26.270Z,36.51
2019-03-25T13:38:26.292Z,36.52
2019-03-25T13:39:26.270Z,36.93
2019-03-25T13:40:26.316Z,36.52
2019-03-25T13:41:26.252Z,37.03
2019-03-25T13:42:26.234Z,36.82
2019-03-25T13:43:26.218Z,37.03
2019-03-25T13:44:26.211Z,36.93
2019-03-25T13:45:26.176Z,36.71
2019-03-25T13:46:26.151Z,36.73
2019-03-25T13:47:26.147Z,36.81
2019-03-25T13:48:26.116Z,36.91
2019-03-25T13:49:26.155Z,36.91
2019-03-25T13:50:26.118Z,37.01
2019-03-25T13:51:26.376Z,36.91
2019-03-25T13:52:26.132Z,36.60
2019-03-25T13:53:26.087Z,36.60
2019-03-25T13:54:26.049Z,36.71
2019-03-25T13:55:26.811Z,37.09
2019-03-25T13:56:26.044Z,36.81
2019-03-25T13:57:26.033Z,37.09
2019-03-25T13:58:26.052Z,36.91
2019-03-25T13:59:27.539Z,37.21
2019-03-25T14:00:26.620Z,36.51
2019-03-25T14:01:25.971Z,36.71
2019-03-25T14:02:26.356Z,36.89
2019-03-25T14:03:25.954Z,36.60
2019-03-25T14:04:25.953Z,36.60
2019-03-25T14:05:25.962Z,37.10
2019-03-25T14:06:25.926Z,36.71
2019-03-25T14:07:25.924Z,36.71
2019-03-25T14:08:25.895Z,36.60
2019-03-25T14:09:25.886Z,36.69
2019-03-25T14:10:25.872Z,36.89
2019-03-25T14:11:25.884Z,36.79
2019-03-25T14:12:25.871Z,37.09
2019-03-25T14:13:25.832Z,36.59
2019-03-25T14:14:25.832Z,37.29
2019-03-25T14:15:25.825Z,36.99
2019-03-25T14:16:25.817Z,36.69
2019-03-25T14:17:25.836Z,36.69
2019-03-25T14:18:25.820Z,36.27
2019-03-25T14:19:25.804Z,36.69
2019-03-25T14:20:25.768Z,36.49
2019-03-25T14:21:25.759Z,36.39
2019-03-25T14:22:25.737Z,36.51
2019-03-25T14:23:25.728Z,36.60
2019-03-25T14:24:25.715Z,37.21
2019-03-25T14:25:25.708Z,37.31
2019-03-25T14:26:25.719Z,37.01
2019-03-25T14:27:25.688Z,37.10
2019-03-25T14:28:25.667Z,36.81
2019-03-25T14:29:25.655Z,37.10
2019-03-25T14:30:26.261Z,36.51
2019-03-25T14:31:25.669Z,36.30
2019-03-25T14:32:25.649Z,36.30
2019-03-25T14:33:25.617Z,36.51
2019-03-25T14:34:25.606Z,36.60
2019-03-25T14:35:25.619Z,36.51
2019-03-25T14:36:25.577Z,36.51
2019-03-25T14:37:25.574Z,37.12
2019-03-25T14:38:25.595Z,36.60
2019-03-25T14:39:26.112Z,36.71
2019-03-25T14:40:25.667Z,36.52
2019-03-25T14:41:25.528Z,36.62
2019-03-25T14:42:25.527Z,36.52
2019-03-25T14:43:25.504Z,37.03
2019-03-25T14:44:25.499Z,36.73
2019-03-25T14:45:26.600Z,36.52
2019-03-25T14:46:25.536Z,36.52
2019-03-25T14:47:25.504Z,36.52
2019-03-25T14:48:27.304Z,36.62
2019-03-25T14:49:25.433Z,36.62
2019-03-25T14:50:25.687Z,37.23
2019-03-25T14:51:25.498Z,36.43
2019-03-25T14:52:25.400Z,36.64
2019-03-25T14:53:25.385Z,36.52
2019-03-25T14:54:25.390Z,36.52
2019-03-25T14:55:25.447Z,36.52
2019-03-25T14:56:25.358Z,36.64
2019-03-25T14:57:25.344Z,36.64
2019-03-25T14:58:25.337Z,36.64
2019-03-25T14:59:25.353Z,36.82
2019-03-25T15:15:01.410Z,36.94
2019-03-25T15:16:01.414Z,36.84
2019-03-25T15:17:01.390Z,36.64
2019-03-25T15:18:01.382Z,36.94
2019-03-25T15:19:01.381Z,36.84
2019-03-25T15:20:01.374Z,36.44
2019-03-25T15:21:01.354Z,36.94
2019-03-25T15:22:01.336Z,37.44
2019-03-25T15:23:01.337Z,36.74
2019-03-25T15:24:01.326Z,37.34
2019-03-25T15:25:01.304Z,37.44
2019-03-25T15:26:01.289Z,37.75
2019-03-25T15:27:01.274Z,36.94
2019-03-25T15:28:01.261Z,36.44
2019-03-25T15:29:01.294Z,36.64
2019-03-25T15:30:01.280Z,36.84
2019-03-25T15:31:01.245Z,36.64
2019-03-25T15:32:01.218Z,36.84
2019-03-25T15:33:01.203Z,36.74
2019-03-25T15:34:01.194Z,36.54
2019-03-25T15:35:01.207Z,36.74
2019-03-25T15:36:01.184Z,36.74
2019-03-25T15:37:01.161Z,37.12
2019-03-25T15:38:01.155Z,36.62
2019-03-25T15:39:01.155Z,37.12
2019-03-25T15:40:01.162Z,36.52
2019-03-25T15:41:01.119Z,36.62
2019-03-25T15:42:01.103Z,36.32
2019-03-25T15:43:01.092Z,36.60
2019-03-25T15:44:01.088Z,36.60
2019-03-25T15:45:01.070Z,36.32
2019-03-25T15:46:01.060Z,36.52
2019-03-25T15:47:01.049Z,36.52
2019-03-25T15:48:01.036Z,36.91
2019-03-25T15:49:01.040Z,36.71
2019-03-25T15:50:01.024Z,36.81
2019-03-25T15:51:01.002Z,36.01
2019-03-25T15:52:00.994Z,36.30
2019-03-25T15:53:00.982Z,36.71
2019-03-25T15:54:00.982Z,36.81
2019-03-25T15:55:00.963Z,36.30
2019-03-25T15:56:00.971Z,36.73
2019-03-25T15:57:00.936Z,36.82
2019-03-25T15:58:00.924Z,36.82
2019-03-25T15:59:02.960Z,36.82
2019-03-25T16:00:00.905Z,36.82
2019-03-25T16:01:00.898Z,36.82
2019-03-25T16:02:00.893Z,36.91
2019-03-25T16:03:00.876Z,36.71
2019-03-25T16:04:00.858Z,36.23
2019-03-25T16:05:00.838Z,36.23
2019-03-25T16:06:00.846Z,36.82
2019-03-25T16:07:00.834Z,36.82
2019-03-25T16:08:00.812Z,36.73
2019-03-25T16:09:00.808Z,36.32
2019-03-25T16:10:00.807Z,36.52
2019-03-25T16:11:00.774Z,36.32
2019-03-25T16:12:00.770Z,36.23
2019-03-25T16:13:00.843Z,36.32
2019-03-25T16:14:00.741Z,36.01
2019-03-25T16:15:00.738Z,36.12
2019-03-25T16:16:00.746Z,36.01
2019-03-25T16:17:00.701Z,36.52
2019-03-25T16:18:00.705Z,36.02
2019-03-25T16:19:00.712Z,36.02
2019-03-25T16:20:00.682Z,36.02
2019-03-25T16:21:00.667Z,35.93
2019-03-25T16:22:00.655Z,36.32
2019-03-25T16:23:00.653Z,36.23
2019-03-25T16:24:00.628Z,36.02
2019-03-25T16:25:00.639Z,36.82
2019-03-25T16:26:00.612Z,36.02
2019-03-25T16:27:00.589Z,36.52
2019-03-25T16:28:00.576Z,36.32
2019-03-25T16:29:00.584Z,36.43
2019-03-25T16:30:00.574Z,35.93
2019-03-25T16:31:00.553Z,36.32
2019-03-25T16:32:00.550Z,36.32
2019-03-25T16:33:00.523Z,36.02
2019-03-25T16:34:00.528Z,36.12
2019-03-25T16:35:00.503Z,36.32
2019-03-25T16:36:00.491Z,36.04
2019-03-25T16:37:00.481Z,36.23
2019-03-25T16:38:00.470Z,36.52
2019-03-25T16:39:00.463Z,36.12
2019-03-25T16:40:00.452Z,36.32
2019-03-25T16:41:00.469Z,36.32
2019-03-25T16:42:00.431Z,36.43
2019-03-25T16:43:00.412Z,36.12
2019-03-25T16:44:00.397Z,36.04
2019-03-25T16:45:00.397Z,36.24
2019-03-25T16:46:00.406Z,36.34
2019-03-25T16:47:00.363Z,36.23
2019-03-25T16:48:00.362Z,36.34
2019-03-25T16:49:00.340Z,36.24
2019-03-25T16:50:00.376Z,36.24
2019-03-25T16:51:00.316Z,36.23
2019-03-25T16:52:00.308Z,36.34
2019-03-25T16:53:00.303Z,36.54
2019-03-25T16:54:00.642Z,36.54
2019-03-25T16:55:00.419Z,36.14
2019-03-25T16:56:00.276Z,36.14
2019-03-25T16:57:00.254Z,35.94
2019-03-25T16:58:00.247Z,36.04
2019-03-25T16:59:00.234Z,36.34
2019-03-25T17:00:00.401Z,36.34
2019-03-25T17:01:09.465Z,36.14
2019-03-25T17:02:22.605Z,36.14
2019-03-25T17:03:22.597Z,36.04
2019-03-25T17:04:22.600Z,36.44
2019-03-25T17:05:22.571Z,36.04
2019-03-25T17:06:22.558Z,36.34
2019-03-25T17:07:22.553Z,35.94
2019-03-25T17:08:22.638Z,35.94
2019-03-25T17:09:22.560Z,36.04
2019-03-25T17:10:22.514Z,36.74
2019-03-25T17:11:22.517Z,36.34
2019-03-25T17:12:22.497Z,36.54
2019-03-25T17:13:22.484Z,36.34
2019-03-25T17:14:22.477Z,36.04
2019-03-25T17:15:22.474Z,36.04
2019-03-25T17:16:22.458Z,36.84
2019-03-25T17:17:22.462Z,36.04
2019-03-25T17:18:22.440Z,36.04
2019-03-25T17:19:22.429Z,36.04
2019-03-25T17:20:22.418Z,36.24
2019-03-25T17:21:22.402Z,36.04
2019-03-25T17:22:22.380Z,36.04
2019-03-25T17:23:22.651Z,36.14
2019-03-25T17:24:22.390Z,36.34
2019-03-25T17:25:22.354Z,35.94
2019-03-25T17:26:22.407Z,36.54
2019-03-25T17:27:22.331Z,36.34
2019-03-25T17:28:22.364Z,36.04
2019-03-25T17:29:22.306Z,36.54
2019-03-25T17:32:22.279Z,36.34
2019-03-25T17:33:22.258Z,36.24
2019-03-25T17:34:22.291Z,36.54
2019-03-25T17:39:44.435Z,36.34
2019-03-25T17:43:44.370Z,36.04
2019-03-25T17:46:44.336Z,36.26
2019-03-25T17:52:44.267Z,36.04
2019-03-25T17:59:44.194Z,36.44
2019-03-25T18:08:44.110Z,36.34
